Home > Products > Valid Products > TAF

000
FTUS44 KBMX 020500
TAFANB
TAF
KANB 020529Z 0206/0306 00000KT P6SM SCT250
     FM021400 23005KT P6SM SCT050=



000
FTUS44 KBMX 020500
TAFTOI
TAF
KTOI 020529Z 0206/0306 00000KT P6SM SCT250
     FM021400 24005KT P6SM SCT050=



000
FTUS44 KBMX 020500
TAFMGM
TAF
KMGM 020529Z 0206/0306 00000KT P6SM SCT250
     FM021400 24005KT P6SM SCT050=



000
FTUS44 KBMX 020500
TAFBHM
TAF
KBHM 020529Z 0206/0306 19003KT P6SM SCT250
     FM021400 23005KT P6SM SCT050=



000
FTUS44 KBMX 020500
TAFTCL
TAF
KTCL 020529Z 0206/0306 00000KT P6SM SCT250
     FM021400 22005KT P6SM SCT050=



000
FTUS44 KBMX 020500
TAFEET
TAF
KEET 020529Z 0206/0306 00000KT P6SM SCT250
     FM021400 23005KT P6SM SCT050=



000
FTUS44 KBMX 012300
TAFTOI
TAF
KTOI 012325Z 0200/0224 00000KT P6SM SCT150
     FM021400 24005KT P6SM SCT050=



000
FTUS44 KBMX 012300
TAFANB
TAF
KANB 012325Z 0200/0224 00000KT P6SM SCT150
     FM021400 23005KT P6SM SCT050=



000
FTUS44 KBMX 012300
TAFTCL
TAF
KTCL 012325Z 0200/0224 00000KT P6SM SCT150
     FM021400 22005KT P6SM SCT050=



000
FTUS44 KBMX 012300
TAFBHM
TAF
KBHM 012325Z 0200/0224 19003KT P6SM SCT150
     FM021400 23005KT P6SM SCT050=



000
FTUS44 KBMX 012300
TAFEET
TAF
KEET 012325Z 0200/0224 00000KT P6SM SCT150
     FM021400 23005KT P6SM SCT050=



000
FTUS44 KBMX 012300
TAFMGM
TAF
KMGM 012325Z 0200/0224 00000KT P6SM SCT150
     FM021400 24005KT P6SM SCT050=



000
FTUS44 KBMX 012200 AAA
TAFTOI
TAF AMD
KTOI 012207Z 0122/0218 21006KT P6SM VCSH SCT050
     FM020000 00000KT P6SM SCT250=



000
FTUS44 KBMX 011700
TAFANB
TAF
KANB 011731Z 0118/0218 19005KT P6SM VCTS SCT050CB
     FM020100 00000KT P6SM SCT250=



000
FTUS44 KBMX 011700
TAFMGM
TAF
KMGM 011731Z 0118/0218 20004KT P6SM SCT050
     FM020100 19003KT P6SM SCT250=



000
FTUS44 KBMX 011700
TAFTOI
TAF
KTOI 011731Z 0118/0218 19003KT P6SM SCT050
     FM020100 00000KT P6SM SCT250=



000
FTUS44 KBMX 011700
TAFEET
TAF
KEET 011731Z 0118/0218 20005KT P6SM SCT050
     FM020100 00000KT P6SM SCT250=



000
FTUS44 KBMX 011700
TAFBHM
TAF
KBHM 011731Z 0118/0218 20005KT P6SM SCT050
     FM020100 17003KT P6SM SCT250=



000
FTUS44 KBMX 011700
TAFTCL
TAF
KTCL 011731Z 0118/0218 19005KT P6SM SCT050
     FM020100 00000KT P6SM SCT250=



000
FTUS44 KBMX 011300 AAA
TAFTOI
TAF AMD
KTOI 011314Z 0113/0212 08003KT P6SM SCT006
      TEMPO 0113/0114 BKN006
     FM011500 12005KT P6SM SCT050
     FM020100 00000KT P6SM SCT250=



000
FTUS44 KBMX 011100
TAFTCL
TAF
KTCL 011138Z 0112/0212 00000KT P6SM BKN150
     FM011500 19007KT P6SM SCT050
     FM020100 00000KT P6SM SCT250=



000
FTUS44 KBMX 011100
TAFBHM
TAF
KBHM 011138Z 0112/0212 VRB04KT P6SM BKN150
     FM011500 21007KT P6SM BKN050
     FM020100 VRB03KT P6SM SCT250=



000
FTUS44 KBMX 011100
TAFEET
TAF
KEET 011138Z 0112/0212 00000KT P6SM BKN150
     FM011500 18007KT P6SM BKN050
     FM020100 VRB04KT P6SM SCT250=



000
FTUS44 KBMX 011100
TAFANB
TAF
KANB 011138Z 0112/0212 00000KT P6SM BKN150
     FM011500 20007KT P6SM BKN050
     FM020100 00000KT P6SM SCT250=



000
FTUS44 KBMX 011100
TAFMGM
TAF
KMGM 011138Z 0112/0212 00000KT P6SM SCT250
     FM011400 20006KT P6SM SCT050
     FM020100 VRB04KT P6SM SCT250=



000
FTUS44 KBMX 011100
TAFTOI
TAF
KTOI 011138Z 0112/0212 00000KT P6SM SCT250
     FM011500 18005KT P6SM SCT050
     FM020100 00000KT P6SM SCT250=



000
FTUS44 KBMX 010500
TAFBHM
TAF
KBHM 010528Z 0106/0206 VRB04KT P6SM SCT250
     FM011500 20007KT P6SM BKN050
     FM020100 VRB04KT P6SM SCT250=



000
FTUS44 KBMX 010500
TAFEET
TAF
KEET 010528Z 0106/0206 00000KT P6SM SCT250
     FM011500 20007KT P6SM BKN050
     FM020100 VRB04KT P6SM SCT250=



000
FTUS44 KBMX 010500
TAFTOI
TAF
KTOI 010528Z 0106/0206 00000KT P6SM SCT250
      TEMPO 0108/0112 4SM BR SCT025
     FM011500 20003KT P6SM FEW250
     FM020100 00000KT P6SM SCT250=



000
FTUS44 KBMX 010500
TAFANB
TAF
KANB 010528Z 0106/0206 00000KT P6SM SCT250
      TEMPO 0108/0112 4SM BR SCT025
     FM011500 20007KT P6SM BKN050
     FM020100 00000KT P6SM SCT250=



000
FTUS44 KBMX 010500
TAFMGM
TAF
KMGM 010528Z 0106/0206 00000KT P6SM BKN250
     FM011000 00000KT 6SM BR SCT025
     FM011400 22006KT P6SM SCT050 SCT250
     FM020100 VRB04KT P6SM SCT250=



000
FTUS44 KBMX 010500
TAFTCL
TAF
KTCL 010528Z 0106/0206 00000KT P6SM SCT250
      TEMPO 0108/0112 4SM BR SCT025
     FM011500 20007KT P6SM BKN050
     FM020100 00000KT P6SM SCT250=



000
FTUS44 KBMX 312300 CCA
TAFMGM
TAF COR
KMGM 312343Z 0100/0124 VRB04KT 6SM -RA BR SCT025 BKN050
     FM010200 00000KT P6SM SCT250
     FM011000 00000KT 6SM BR SCT025
     FM011400 25006KT P6SM SCT050 SCT250=



000
FTUS44 KBMX 312300 RRA
TAFTOI
TAF
KTOI 312341Z 0100/0124 00000KT P6SM SCT250
     FM010800 00000KT 4SM BR SCT025
     FM011500 18003KT P6SM FEW250=



000
FTUS44 KBMX 312300 RRA
TAFANB
TAF
KANB 312341Z 0100/0124 00000KT P6SM BKN150
     FM010800 00000KT 4SM BR SCT025 SCT150
     FM011500 20007KT P6SM SCT025 BKN150=



000
FTUS44 KBMX 312300 RRA
TAFTCL
TAF
KTCL 312341Z 0100/0124 00000KT P6SM BKN150
     FM010800 00000KT 4SM BR SCT025 SCT150
     FM011500 20007KT P6SM SCT025 BKN150=



000
FTUS44 KBMX 312300 RRA
TAFEET
TAF
KEET 312341Z 0100/0124 VRB04KT P6SM SCT050 BKN150
     FM011500 20007KT P6SM SCT025 BKN060
     FM011800 21008KT P6SM SCT050 BKN200=



000
FTUS44 KBMX 312300 RRA
TAFMGM
TAF
KMGM 312341Z 0100/0124 00000KT P6SM SCT250
     FM011000 00000KT 6SM BR SCT025
     FM011400 25006KT P6SM SCT050 SCT250=



000
FTUS44 KBMX 312300 RRA
TAFBHM
TAF
KBHM 312341Z 0100/0124 VRB04KT P6SM SCT050 BKN150
     FM011500 20007KT P6SM SCT025 BKN060
     FM011800 22008KT P6SM SCT050 BKN200=



000
FTUS44 KBMX 312300 AAA
TAFMGM
TAF AMD
KMGM 312333Z 0100/0118 VRB04KT 6SM -RA BR SCT025 BKN050
     FM010200 00000KT P6SM SCT250
     FM011000 00000KT 6SM BR SCT025=



000
FTUS44 KBMX 312200 AAB
TAFMGM
TAF AMD
KMGM 312253Z 3123/0118 24007KT P6SM VCTS SCT025CB BKN050
     FM312300 22015G25KT 5SM -TSRA BR BKN025CB
     FM010000 00000KT P6SM SCT250
     FM011000 00000KT 6SM BR SCT025=



000
FTUS44 KBMX 312000 AAA
TAFMGM
TAF AMD
KMGM 312040Z 3121/0118 29006KT P6SM VCSH SCT050
     FM312200 24007KT P6SM VCTS SCT025CB BKN050
     FM010100 00000KT P6SM SCT250
     FM011000 00000KT 6SM BR SCT025=



000
FTUS44 KBMX 311900 AAB
TAFBHM
TAF AMD
KBHM 311910Z 3119/0118 20010G18KT P6SM VCSH SCT025 BKN035
     FM312100 21010KT P6SM VCTS SCT035CB BKN050
     FM010100 00000KT P6SM BKN150
     FM011500 20007KT P6SM SCT025 BKN150=



000
FTUS44 KBMX 311800 AAA
TAFBHM
TAF AMD
KBHM 311832Z 3119/0118 20010G18KT P6SM VCSH SCT025 BKN035
      TEMPO 3119/3120 3SM SHRA
     FM312100 21010KT P6SM VCTS SCT035CB BKN050
     FM010100 00000KT P6SM BKN150
     FM011500 20007KT P6SM SCT025 BKN150=



000
FTUS44 KBMX 311700
TAFANB
TAF
KANB 311730Z 3118/0118 22010KT P6SM VCSH SCT025 BKN035
     FM312100 21010KT P6SM VCTS SCT035CB BKN050
     FM010100 00000KT P6SM BKN150
     FM010800 00000KT 4SM BR SCT025 SCT150
     FM011500 20007KT P6SM SCT025 BKN150=



000
FTUS44 KBMX 311700
TAFEET
TAF
KEET 311730Z 3118/0118 22010KT P6SM VCSH SCT025 BKN035
     FM312100 21010KT P6SM VCTS SCT035CB BKN050
     FM010100 00000KT P6SM BKN150
     FM011000 00000KT 4SM BR SCT025 SCT150
     FM011500 20007KT P6SM SCT025 BKN150=



000
FTUS44 KBMX 311700
TAFMGM
TAF
KMGM 311730Z 3118/0118 22006KT P6SM SCT050
     FM010100 00000KT P6SM SCT250
     FM011000 00000KT 6SM BR SCT025=



000
FTUS44 KBMX 311700
TAFTCL
TAF
KTCL 311730Z 3118/0118 22010KT P6SM VCSH SCT025 BKN035
     FM312100 21010KT P6SM VCTS SCT035CB BKN050
     FM010100 00000KT P6SM BKN150
     FM010800 00000KT 4SM BR SCT025 SCT150
     FM011500 20007KT P6SM SCT025 BKN150=



000
FTUS44 KBMX 311700
TAFBHM
TAF
KBHM 311730Z 3118/0118 22010KT P6SM VCSH SCT025 BKN035
     FM312100 21010KT P6SM VCTS SCT035CB BKN050
     FM010100 00000KT P6SM BKN150
     FM011500 20007KT P6SM SCT025 BKN150=



000
FTUS44 KBMX 311700
TAFTOI
TAF
KTOI 311730Z 3118/0118 22005KT P6SM SCT050
     FM010000 00000KT P6SM SCT250
     FM010800 00000KT 4SM BR SCT025
     FM011500 18003KT P6SM FEW250=



000
FTUS44 KBMX 311600 AAB
TAFTCL
TAF AMD
KTCL 311604Z 3116/0112 20007KT P6SM BKN025 BKN035
     FM311800 21007KT P6SM SCT050
     FM010200 00000KT P6SM SKC=



000
FTUS44 KBMX 311600 AAC
TAFEET
TAF AMD
KEET 311603Z 3116/0112 17007KT 6SM BR BKN015 OVC025
     FM311800 21007KT P6SM BKN035
     FM312000 21007KT P6SM BKN050
     FM010100 00000KT P6SM SCT200=



000
FTUS44 KBMX 311600 AAB
TAFBHM
TAF AMD
KBHM 311603Z 3116/0112 15007KT P6SM BKN015 OVC025
     FM311800 21006KT P6SM BKN035
     FM312000 21006KT P6SM BKN050
     FM010100 00000KT P6SM SCT200=



000
FTUS44 KBMX 311600 AAB
TAFEET
TAF AMD
KEET 311602Z 3116/0112 00000KT 6SM BR BKN015 OVC025
     FM311800 21006KT P6SM BKN035
     FM312000 21006KT P6SM BKN050
     FM010100 00000KT P6SM SCT200=



000
FTUS44 KBMX 311400 AAA
TAFTCL
TAF AMD
KTCL 311432Z 3115/0112 20007KT 6SM HZ BKN015 BKN035
     FM311600 21007KT P6SM SCT050
     FM010200 00000KT P6SM SKC=



000
FTUS44 KBMX 311400 AAA
TAFBHM
TAF AMD
KBHM 311431Z 3115/0112 15007KT P6SM SCT025
     FM311600 21009KT P6SM BKN050
     FM010100 01004KT P6SM SKC=



000
FTUS44 KBMX 311400 AAA
TAFEET
TAF AMD
KEET 311431Z 3115/0112 00000KT 6SM BR BKN015 OVC025
     FM311600 21006KT P6SM BKN035
     FM311800 21006KT P6SM BKN050
     FM010100 00000KT P6SM SCT200=



000
FTUS44 KBMX 311100
TAFEET
TAF
KEET 311123Z 3112/0112 00000KT 6SM BR BKN015 OVC020
     FM311500 21006KT P6SM BKN035
     FM311800 21006KT P6SM BKN050
     FM010100 00000KT P6SM SCT200=



000
FTUS44 KBMX 311100
TAFTCL
TAF
KTCL 311123Z 3112/0112 VRB02KT 6SM BR BKN025
      TEMPO 3112/3114 SCT009 BKN012
     FM311400 20007KT 6SM HZ SCT015 BKN035
     FM311600 21007KT P6SM SCT050
     FM010200 00000KT P6SM SKC=



000
FTUS44 KBMX 311100
TAFMGM
TAF
KMGM 311123Z 3112/0112 00000KT P6SM BKN020
     FM311400 18003KT P6SM SCT250
     FM311600 22006KT P6SM SCT050
     FM010100 00000KT P6SM SCT250=



000
FTUS44 KBMX 311100
TAFTOI
TAF
KTOI 311123Z 3112/0112 15002KT 6SM BR SCT020
     FM311400 20002KT P6SM BKN250
     FM311600 22005KT P6SM SCT050
     FM010000 00000KT P6SM SCT250=



000
FTUS44 KBMX 311100
TAFBHM
TAF
KBHM 311123Z 3112/0112 10003KT 6SM BR SCT015
     FM311430 19005KT P6SM BKN025
     FM311530 23009KT P6SM BKN050
     FM010100 01004KT P6SM SKC=



000
FTUS44 KBMX 311100
TAFANB
TAF
KANB 311123Z 3112/0112 04004KT P6SM SCT015 BKN025
     FM311400 19005KT P6SM BKN035
     FM311530 21008KT P6SM BKN050
     FM010100 00000KT P6SM FEW250=



000
FTUS44 KBMX 310800 CCB
TAFEET
TAF COR
KEET 310829Z 3108/0106 00000KT P6SM BKN003 OVC020
      TEMPO 3113/3115 3SM BR BKN012 OVC025
     FM311500 21006KT P6SM BKN035
     FM311800 21006KT P6SM SCT050 SCT150
     FM010000 00000KT P6SM SCT200=



000
FTUS44 KBMX 310800 AAA
TAFTOI
TAF AMD
KTOI 310828Z 3108/0106 00000KT P6SM BKN200
     FM311000 15002KT 4SM BR SCT020
      TEMPO 3111/3113 2SM BR BKN012
     FM311400 20002KT P6SM BKN250
     FM010200 22002KT P6SM SCT250=



000
FTUS44 KBMX 310800 AAA
TAFMGM
TAF AMD
KMGM 310827Z 3108/0106 00000KT P6SM BKN020
      TEMPO 3110/3112 3SM BR SCT007 BKN012
     FM311400 18003KT P6SM SCT250
     FM010100 20003KT P6SM SCT250=



000
FTUS44 KBMX 310700 CCA
TAFEET
TAF COR
KEET 310757Z 3108/0106 00000KT P6SM BKN003 OVC020
      TEMPO 3113/3115 BKN012 OVC025
     FM311500 21006KT P6SM BKN035
     FM311800 21006KT P6SM SCT050 SCT150
     FM010000 00000KT P6SM SCT200=



000
FTUS44 KBMX 310700 AAA
TAFTCL
TAF AMD
KTCL 310756Z 3108/0106 09003KT P6SM BKN250
     FM310900 VRB02KT 6SM BR BKN025
      TEMPO 3110/3114 BKN004 BKN012
     FM311400 20007KT 6SM HZ SCT006 BKN015
     FM311600 21007KT P6SM SCT050
     FM010200 00000KT P6SM SKC=



000
FTUS44 KBMX 310700 AAA
TAFEET
TAF AMD
KEET 310745Z 3108/0106 00000KT P6SM BKN003 OVC020
      TEMPO 3113/3115 BKN012 OVC025
     FM311600 21006KT P6SM BKN035
     FM311800 21006KT P6SM SCT050 SCT150
     FM010000 00000KT P6SM SCT200=



000
FTUS44 KBMX 310500
TAFBHM
TAF
KBHM 310520Z 3106/0106 00000KT P6SM BKN200
     FM311000 20006KT P6SM BKN015
     FM311600 23008KT P6SM BKN050
     FM010100 01004KT P6SM SKC=



000
FTUS44 KBMX 310500
TAFTCL
TAF
KTCL 310520Z 3106/0106 09003KT 6SM BR BKN200
     FM310900 VRB02KT 4SM BR BKN025
     FM311400 20007KT 6SM HZ BKN015
     FM311600 21007KT P6SM BKN050
     FM010200 00000KT P6SM SKC=



000
FTUS44 KBMX 310500
TAFMGM
TAF
KMGM 310520Z 3106/0106 00000KT P6SM BKN200
     FM311100 00000KT 4SM BR SCT007
     FM311400 18003KT P6SM SCT250
     FM010100 20003KT P6SM SCT250=



000
FTUS44 KBMX 310500
TAFEET
TAF
KEET 310520Z 3106/0106 00000KT P6SM BKN200
     FM311000 VRB02KT 5SM BR BKN015
     FM311500 24006KT P6SM SCT250=



000
FTUS44 KBMX 310500
TAFANB
TAF
KANB 310520Z 3106/0106 00000KT P6SM BKN200
     FM311000 VRB02KT 5SM BR BKN015
     FM311400 22006KT P6SM SCT250
     FM010100 00000KT P6SM FEW250=



000
FTUS44 KBMX 310500
TAFTOI
TAF
KTOI 310520Z 3106/0106 00000KT P6SM BKN200
     FM311000 15002KT 4SM BR SCT020
     FM311400 20002KT P6SM BKN250
     FM010200 22002KT P6SM SCT250=



000
FTUS44 KBMX 310100 AAA
TAFANB
TAF AMD
KANB 310116Z 3101/3124 00000KT P6SM FEW060 FEW080
     FM310500 VRB02KT 5SM BR BKN050
     FM311000 VRB03KT 5SM BR BKN015
     FM311400 22004KT 6SM HZ BKN025
     FM311600 23005KT P6SM BKN050=



000
FTUS44 KBMX 302300
TAFBHM
TAF
KBHM 302339Z 3100/3124 18010KT P6SM VCTS SCT050CB BKN150
     FM310300 VRB04KT P6SM BKN050
     FM311200 20007KT P6SM BKN015
     FM311800 23010KT P6SM BKN050=



000
FTUS44 KBMX 302300
TAFTCL
TAF
KTCL 302339Z 3100/3124 18010KT P6SM VCSH BKN035 OVC050
     FM310300 10002KT 6SM BR BKN250
     FM310700 VRB04KT 4SM BR BKN025
     FM311400 20007KT 6SM HZ BKN015
     FM311800 21007KT P6SM BKN050=



000
FTUS44 KBMX 302300
TAFTOI
TAF
KTOI 302339Z 3100/3124 VRB03KT P6SM SCT050 BKN200
     FM310800 15002KT 4SM BR BKN015
     FM311400 20002KT 6SM HZ BKN250
     FM311500 20004KT P6SM BKN025=



000
FTUS44 KBMX 302300
TAFMGM
TAF
KMGM 302339Z 3100/3124 12010KT P6SM VCTS BKN050CB BKN100
     FM310200 VRB03KT P6SM BKN040 BKN200
     FM311100 15002KT 4SM BR BKN015
     FM311400 18003KT 6SM HZ SCT250
     FM311500 20004KT P6SM BKN025=



000
FTUS44 KBMX 302300
TAFEET
TAF
KEET 302339Z 3100/3124 20010KT P6SM VCTS SCT050CB BKN150
     FM310300 VRB04KT P6SM BKN050
     FM310600 36002KT 5SM BR BKN250
     FM311200 20007KT 4SM BR BKN015
     FM311800 24006KT P6SM SCT250=



000
FTUS44 KBMX 302300
TAFANB
TAF
KANB 302339Z 3100/3124 18010KT 5SM TSRA BKN035CB OVC050
     FM310500 VRB04KT 5SM BR BKN050
     FM311000 20007KT 5SM BR BKN015
     FM311400 22004KT 6SM HZ BKN025
     FM311600 23005KT P6SM BKN050=



000
FTUS44 KBMX 302100 CCA
TAFBHM
TAF COR
KBHM 302123Z 3021/3118 18010KT P6SM VCTS SCT050CB BKN150
      TEMPO 3021/3023 VRB20G30KT 1SM TSRA SCT020 BKN035CB
     FM310300 VRB04KT P6SM BKN050
     FM311200 20007KT P6SM BKN015=



000
FTUS44 KBMX 302100 CCA
TAFEET
TAF COR
KEET 302123Z 3021/3118 20010KT P6SM VCTS SCT050CB BKN150
      TEMPO 3021/3023 VRB25G35KT 1SM TSRA SCT015CB BKN035
     FM310300 VRB04KT P6SM BKN050
     FM311200 20007KT P6SM BKN015=



000
FTUS44 KBMX 302100 AAA
TAFEET
TAF AMD
KEET 302122Z 3021/3118 20010KT P6SM VCTS SCT050CB BKN150
      TEMPO 3021/3023 1SM TSRA SCT015CB BKN035
     FM310300 VRB04KT P6SM BKN050
     FM311200 20007KT P6SM BKN015=



000
FTUS44 KBMX 302100 AAC
TAFBHM
TAF AMD
KBHM 302119Z 3021/3118 18010KT P6SM VCTS SCT050CB BKN150
      TEMPO 3021/3023 1SM TSRA SCT020 BKN035CB
     FM310200 18010KT 4SM SHRA VCTS SCT035CB BKN050
     FM310300 VRB04KT P6SM BKN050
     FM311200 20007KT P6SM BKN015=



000
FTUS44 KBMX 301900 AAA
TAFTCL
TAF AMD
KTCL 301955Z 3020/3118 18010KT P6SM VCTS SCT050CB BKN150
     FM302030 18010KT 4SM SHRA VCTS BKN035CB OVC050
      TEMPO 3021/3023 12010G20KT 2SM TSRA BKN025CB OVC040
     FM310500 VRB04KT P6SM BKN050
     FM311200 20007KT P6SM BKN015=



000
FTUS44 KBMX 301900 AAA
TAFMGM
TAF AMD
KMGM 301923Z 3019/3118 12010KT P6SM VCTS BKN050CB BKN100
      TEMPO 3021/3022 2SM TSRA SCT025 BKN035CB
     FM310100 VRB03KT P6SM BKN040 BKN200
     FM311100 15002KT 4SM BR BKN015=



000
FTUS44 KBMX 301800 AAB
TAFBHM
TAF AMD
KBHM 301820Z 3018/3118 18010KT P6SM VCTS SCT050CB BKN150
      TEMPO 3018/3019 1SM TSRA SCT020 BKN035CB
     FM302000 18010KT 4SM SHRA VCTS SCT035CB BKN050
     FM310300 VRB04KT P6SM BKN050
     FM311200 20007KT P6SM BKN015=



000
FTUS44 KBMX 301700 AAA
TAFBHM
TAF AMD
KBHM 301758Z 3018/3118 18010KT P6SM VCTS SCT050CB BKN150
      TEMPO 3018/3019 3SM -TSRA BKN035CB
     FM302000 18010KT 4SM SHRA VCTS SCT035CB BKN050
     FM310300 VRB04KT P6SM BKN050
     FM311200 20007KT P6SM BKN015=



000
FTUS44 KBMX 301700
TAFEET
TAF
KEET 301729Z 3018/3118 20010KT P6SM VCTS SCT050CB BKN150
     FM302000 18010KT 4SM SHRA VCTS BKN035CB OVC050
     FM310300 VRB04KT P6SM BKN050
     FM311200 20007KT P6SM BKN015=



000
FTUS44 KBMX 301700
TAFANB
TAF
KANB 301729Z 3018/3118 19010KT P6SM VCTS BKN035CB BKN150
     FM302100 18010KT 4SM SHRA VCTS BKN035CB OVC050
     FM310500 VRB04KT P6SM BKN050
     FM311200 20007KT P6SM BKN015=



000
FTUS44 KBMX 301700
TAFBHM
TAF
KBHM 301729Z 3018/3118 18010KT P6SM VCTS SCT050CB BKN150
     FM302000 18010KT 4SM SHRA VCTS SCT035CB BKN050
     FM310300 VRB04KT P6SM BKN050
     FM311200 20007KT P6SM BKN015=



000
FTUS44 KBMX 301700
TAFTOI
TAF
KTOI 301729Z 3018/3118 20010KT P6SM VCTS SCT050CB BKN100
     FM310000 VRB03KT P6SM SCT050 BKN200
     FM310800 15002KT 4SM BR BKN015=



000
FTUS44 KBMX 301700
TAFMGM
TAF
KMGM 301729Z 3018/3118 20010KT P6SM VCTS BKN050CB BKN100
     FM310100 VRB03KT P6SM BKN040 BKN200
     FM311100 15002KT 4SM BR BKN015=



000
FTUS44 KBMX 301700
TAFTCL
TAF
KTCL 301729Z 3018/3118 18010KT P6SM VCTS SCT050CB BKN150
     FM301900 18010KT 4SM SHRA VCTS BKN035CB OVC050
     FM310500 VRB04KT P6SM BKN050
     FM311200 20007KT P6SM BKN015=



000
FTUS44 KBMX 301100
TAFANB
TAF
KANB 301135Z 3012/3112 00000KT P6SM BKN018
     FM301400 16007KT P6SM BKN030
     FM301700 20008KT P6SM VCTS BKN050CB BKN150
     FM310100 VRB03KT P6SM BKN050=



000
FTUS44 KBMX 301100
TAFMGM
TAF
KMGM 301135Z 3012/3112 14004KT P6SM BKN120
      TEMPO 3012/3014 4SM BR BKN015
     FM301500 19005KT P6SM SCT030 BKN100
     FM301800 20010KT P6SM VCTS BKN050CB BKN100
     FM302300 VRB03KT P6SM BKN040 BKN200=



000
FTUS44 KBMX 301100
TAFTCL
TAF
KTCL 301135Z 3012/3112 00000KT P6SM BKN150
     FM301500 17010KT P6SM VCSH SCT035 BKN100
     FM301800 20006KT P6SM VCTS BKN040CB
      TEMPO 3019/3023 4SM TSRA BKN035CB
     FM302300 20006KT P6SM BKN050=



000
FTUS44 KBMX 301100
TAFBHM
TAF
KBHM 301135Z 3012/3112 16004KT P6SM BKN020
     FM301400 16007KT P6SM BKN035
     FM301800 18010KT P6SM VCTS SCT050CB BKN150
     FM310100 VRB04KT P6SM BKN050=



000
FTUS44 KBMX 301100
TAFEET
TAF
KEET 301135Z 3012/3112 17004KT P6SM BKN020
     FM301400 16007KT P6SM BKN035
     FM301800 18010KT P6SM VCTS BKN050CB BKN150
     FM310100 VRB04KT P6SM BKN050=



000
FTUS44 KBMX 301100
TAFTOI
TAF
KTOI 301135Z 3012/3112 00000KT P6SM BKN120
      TEMPO 3012/3014 4SM BR BKN007
     FM301500 17007KT P6SM BKN025 BKN100
     FM301600 20010KT P6SM VCTS SCT050CB BKN100
     FM310100 VRB03KT P6SM SCT050 BKN200=



000
FTUS44 KBMX 301000 AAA
TAFANB
TAF AMD
KANB 301058Z 3011/3106 00000KT P6SM BKN018
     FM301500 16007KT P6SM BKN030
     FM301700 20008KT P6SM VCTS SCT050CB BKN150
     FM310100 VRB03KT P6SM BKN050=



000
FTUS44 KBMX 301000 AAA
TAFBHM
TAF AMD
KBHM 301047Z 3011/3106 VRB04KT P6SM BKN020
     FM301500 16007KT P6SM BKN035
     FM301800 18010KT P6SM VCTS SCT050CB BKN150
     FM310100 VRB04KT P6SM BKN050=



000
FTUS44 KBMX 300900 AAA
TAFTOI
TAF AMD
KTOI 300915Z 3009/3106 00000KT P6SM BKN250
      TEMPO 3010/3013 4SM BR BKN007
     FM301300 17007KT P6SM BKN025 BKN100
     FM301600 20010KT P6SM VCTS SCT050CB BKN100
     FM310100 VRB03KT P6SM SCT050 BKN200=



000
FTUS44 KBMX 300900 AAA
TAFEET
TAF AMD
KEET 300912Z 3009/3106 17004KT P6SM BKN020
     FM301500 16007KT P6SM BKN035
     FM301800 18010KT P6SM VCTS SCT050CB BKN150
     FM310100 VRB04KT P6SM BKN050=



    US Dept of Commerce
    National Oceanic and Atmospheric Administration
    National Weather Service
    1325 East West Highway
    Silver Spring, MD 20910
    Page Author: NWS Internet Services Team
Disclaimer
Information Quality
Credits
Glossary
Privacy Policy
Freedom of Information Act (FOIA)
About Us
Career Opportunities